Time;durP1;ratioP1;P1;durP2;ratioP2;P2;SDS_P1;SDS_P2;PMS_P1;PMS_P2;Temp;Humidity;BMP_temperature;BMP_pressure;BME280_temperature;BME280_humidity;BME280_pressure;Samples;Min_cycle;Max_cycle;Signal;HPM_P1;HPM_P2
2023/02/27 00:02:06;;;;;;;;;;;;;;;4.45;100.00;100091.61;1779872;80;20631;-81
2023/02/27 00:05:13;;;;;;;;;;;;;;;4.43;100.00;100096.32;1780021;80;20237;-81
2023/02/27 00:08:17;;;;;;;;;;;;;;;4.48;100.00;100104.37;1781169;80;20604;-82
2023/02/27 00:11:21;;;;;;;;;;;;;;;4.50;100.00;100090.67;1781160;80;20203;-81
2023/02/27 00:14:26;;;;;;;;;;;;;;;4.47;100.00;100089.59;1781543;80;20230;-81
2023/02/27 00:17:31;;;;;;;;;;;;;;;4.42;100.00;100104.91;1779716;80;20242;-81
2023/02/27 00:20:36;;;;;;;;;;;;;;;4.42;100.00;100108.13;1781598;80;20155;-81
2023/02/27 00:23:42;;;;;;;;;;;;;;;4.41;100.00;100105.06;1781045;80;20186;-81
2023/02/27 00:26:47;;;;;;;;;;;;;;;4.41;100.00;100107.27;1779924;80;20214;-81
2023/02/27 00:29:52;;;;;;;;;;;;;;;4.40;100.00;100104.72;1781372;80;20242;-82
2023/02/27 00:32:59;;;;;;;;;;;;;;;4.39;100.00;100101.66;1780324;80;20219;-81
2023/02/27 00:36:04;;;;;;;;;;;;;;;4.42;100.00;100093.23;1781421;80;20210;-82
2023/02/27 00:39:08;;;;;;;;;;;;;;;4.44;100.00;100106.15;1780899;80;20632;-81
2023/02/27 00:42:14;;;;;;;;;;;;;;;4.40;100.00;100106.07;1780802;80;20234;-81
2023/02/27 00:45:23;;;;;;;;;;;;;;;4.44;100.00;100110.21;1780158;80;20242;-80
2023/02/27 00:48:25;;;;;;;;;;;;;;;4.44;100.00;100104.80;1781655;80;20246;-82
2023/02/27 00:51:29;;;;;;;;;;;;;;;4.47;100.00;100111.27;1781346;80;20218;-80
2023/02/27 00:54:35;;;;;;;;;;;;;;;4.45;100.00;100108.70;1780769;80;20372;-81
2023/02/27 00:57:40;;;;;;;;;;;;;;;4.46;100.00;100112.27;1784809;80;20194;-81
2023/02/27 01:00:46;;;;;;;;;;;;;;;4.38;100.00;100113.50;1784817;80;20687;-81
2023/02/27 01:03:52;;;;;;;;;;;;;;;4.33;100.00;100105.80;1783194;80;20214;-81
2023/02/27 01:06:53;;;;;;;;;;;;;;;4.27;100.00;100103.12;1762162;80;21002;-80
2023/02/27 01:09:57;;;;;;;;;;;;;;;4.24;100.00;100102.58;1784828;80;20206;-81
2023/02/27 01:13:01;;;;;;;;;;;;;;;4.22;100.00;100121.65;1783702;80;20210;-81
2023/02/27 01:16:09;;;;;;;;;;;;;;;4.29;100.00;100118.75;1783149;80;20186;-81
2023/02/27 01:19:14;;;;;;;;;;;;;;;4.29;100.00;100107.92;1784887;80;20218;-82
2023/02/27 01:22:18;;;;;;;;;;;;;;;4.36;100.00;100106.34;1784414;80;20214;-81
2023/02/27 01:25:23;;;;;;;;;;;;;;;4.30;100.00;100100.15;1783007;80;20214;-81
2023/02/27 01:28:27;;;;;;;;;;;;;;;4.29;100.00;100110.63;1784711;80;20261;-81
2023/02/27 01:31:34;;;;;;;;;;;;;;;4.30;100.00;100107.42;1783105;80;20238;-81
2023/02/27 01:34:39;;;;;;;;;;;;;;;4.28;100.00;100117.05;1784030;80;20655;-82
2023/02/27 01:37:43;;;;;;;;;;;;;;;4.25;100.00;100117.31;1782857;80;20274;-81
2023/02/27 01:40:49;;;;;;;;;;;;;;;4.28;100.00;100117.05;1784536;80;20214;-81
2023/02/27 01:44:02;;;;;;;;;;;;;;;4.25;100.00;100114.61;1781485;80;20218;-81
2023/02/27 01:47:08;;;;;;;;;;;;;;;4.23;100.00;100116.58;1782929;80;20241;-80
2023/02/27 01:50:13;;;;;;;;;;;;;;;4.25;100.00;100128.14;1784136;80;20147;-81
2023/02/27 01:53:19;;;;;;;;;;;;;;;4.27;100.00;100141.03;1783901;80;20214;-81
2023/02/27 01:56:32;;;;;;;;;;;;;;;4.29;100.00;100150.39;1783141;80;20195;-81
2023/02/27 01:59:36;;;;;;;;;;;;;;;4.30;100.00;100154.30;1784648;80;20218;-81
2023/02/27 02:02:43;;;;;;;;;;;;;;;4.35;100.00;100156.09;1784243;80;20206;-82
2023/02/27 02:05:48;;;;;;;;;;;;;;;4.39;100.00;100144.98;1783562;80;20215;-82
2023/02/27 02:08:56;;;;;;;;;;;;;;;4.30;100.00;100140.77;1782948;80;20211;-81
2023/02/27 02:12:01;;;;;;;;;;;;;;;4.25;100.00;100147.60;1784620;80;20195;-81
2023/02/27 02:15:05;;;;;;;;;;;;;;;4.31;100.00;100142.47;1784559;80;20214;-81
2023/02/27 02:18:23;;;;;;;;;;;;;;;4.28;100.00;100150.01;1784453;80;20257;-81
2023/02/27 02:21:34;;;;;;;;;;;;;;;4.29;100.00;100174.77;1783089;80;20226;-81
2023/02/27 02:24:45;;;;;;;;;;;;;;;4.29;100.00;100184.23;1758570;80;20215;-81
2023/02/27 02:27:54;;;;;;;;;;;;;;;4.27;100.00;100174.88;1782518;80;20214;-81
2023/02/27 02:31:38;;;;;;;;;;;;;;;4.26;100.00;100166.41;1782578;80;20225;-81
2023/02/27 02:35:11;;;;;;;;;;;;;;;4.24;100.00;100158.94;1783034;80;20246;-82
2023/02/27 02:38:37;;;;;;;;;;;;;;;4.26;100.00;100158.78;1784770;80;20210;-81
2023/02/27 02:41:59;;;;;;;;;;;;;;;4.16;100.00;100119.52;1784643;80;20238;-80
2023/02/27 03:54:09;;;;;;;39.80;20.92;;;;;;;2.83;100.00;100153.41;1858060;76;28038;-85
2023/02/27 03:57:15;;;;;;;28.95;16.85;;;;;;;2.90;100.00;100155.94;1832724;77;21203;-84
2023/02/27 04:00:25;;;;;;;31.17;18.27;;;;;;;2.91;100.00;100156.30;1831219;77;21209;-85
2023/02/27 04:03:33;;;;;;;31.90;19.57;;;;;;;2.87;100.00;100168.34;1829056;77;21204;-84
2023/02/27 04:10:27;;;;;;;25.85;15.72;;;;;;;2.89;100.00;100174.49;1761299;80;21509;-85
2023/02/27 04:14:14;;;;;;;17.62;12.13;;;;;;;2.88;100.00;100178.19;1757320;80;21821;-85
2023/02/27 04:17:33;;;;;;;18.67;12.55;;;;;;;2.79;100.00;100171.22;1831240;77;21205;-86
2023/02/27 04:21:07;;;;;;;14.00;10.23;;;;;;;2.77;100.00;100170.48;1764384;80;21764;-85
2023/02/27 04:24:48;;;;;;;14.43;9.88;;;;;;;2.77;100.00;100163.72;1763763;80;21221;-86
2023/02/27 04:28:16;;;;;;;17.42;10.80;;;;;;;2.76;100.00;100155.76;1763708;80;21616;-84
2023/02/27 04:31:31;;;;;;;16.30;10.63;;;;;;;2.73;100.00;100151.49;1775129;80;21182;-85
2023/02/27 04:34:51;;;;;;;19.73;12.93;;;;;;;2.72;100.00;100157.00;1763398;80;21185;-84
2023/02/27 04:38:11;;;;;;;35.43;26.85;;;;;;;2.75;100.00;100154.05;1764169;80;21422;-85
2023/02/27 04:41:26;;;;;;;22.52;14.78;;;;;;;2.78;100.00;100150.61;1756687;80;21776;-85
2023/02/27 04:44:33;;;;;;;22.20;16.40;;;;;;;2.76;100.00;100159.31;1729864;81;21205;-84
2023/02/27 04:47:54;;;;;;;23.18;13.93;;;;;;;2.77;100.00;100152.06;1799283;79;21766;-84
2023/02/27 04:51:18;;;;;;;27.95;17.10;;;;;;;2.79;100.00;100150.96;1765301;81;21724;-84
2023/02/27 04:54:34;;;;;;;21.65;13.40;;;;;;;2.77;100.00;100156.12;1730927;82;21204;-86
2023/02/27 04:57:47;;;;;;;19.20;13.00;;;;;;;2.79;100.00;100158.22;1734209;82;21216;-83
2023/02/27 05:01:00;;;;;;;29.42;21.07;;;;;;;2.81;100.00;100171.94;1765371;80;21257;-84
2023/02/27 05:04:07;;;;;;;25.52;15.45;;;;;;;2.84;100.00;100187.04;1766400;80;21471;-84
2023/02/27 05:07:15;;;;;;;30.75;20.70;;;;;;;2.83;100.00;100202.04;1768428;80;21207;-84
2023/02/27 05:10:26;;;;;;;21.97;14.98;;;;;;;2.84;100.00;100206.45;1767332;80;21223;-84
2023/02/27 05:13:48;;;;;;;27.90;15.23;;;;;;;2.83;100.00;100202.04;1768128;80;21224;-87
2023/02/27 05:17:08;;;;;;;25.50;15.43;;;;;;;2.82;100.00;100209.26;1761196;80;21217;-83
2023/02/27 05:20:15;;;;;;;21.73;13.00;;;;;;;2.87;100.00;100206.17;1762587;80;21236;-84
2023/02/27 05:23:28;;;;;;;27.65;13.00;;;;;;;2.92;100.00;100199.41;1763934;80;21232;-85
2023/02/27 05:27:09;;;;;;;25.85;13.72;;;;;;;2.96;100.00;100199.98;1721269;79;21200;-85
2023/02/27 05:30:34;;;;;;;23.65;14.50;;;;;;;3.04;100.00;100202.91;1769465;80;21244;-84
2023/02/27 05:34:02;;;;;;;26.33;15.90;;;;;;;3.11;100.00;100197.85;1796508;79;21335;-84
2023/02/27 05:37:22;;;;;;;26.48;15.05;;;;;;;3.16;100.00;100201.02;1792873;79;21232;-83
2023/02/27 05:40:40;;;;;;;26.90;15.08;;;;;;;3.22;100.00;100190.52;1792946;78;21221;-83
2023/02/27 05:43:58;;;;;;;24.77;14.93;;;;;;;3.28;100.00;100185.92;1801358;79;21225;-83
2023/02/27 05:47:04;;;;;;;21.57;14.18;;;;;;;3.30;100.00;100182.61;1787318;79;21201;-83
2023/02/27 05:50:23;;;;;;;26.75;13.75;;;;;;;3.30;100.00;100185.31;1793979;78;21335;-85
2023/02/27 05:53:31;;;;;;;27.90;14.70;;;;;;;3.35;100.00;100194.88;1765714;79;21284;-83
2023/02/27 05:56:36;;;;;;;28.05;15.68;;;;;;;3.38;100.00;100196.80;1766031;80;21200;-84
2023/02/27 05:59:59;;;;;;;32.93;15.10;;;;;;;3.43;100.00;100192.34;1769121;80;21248;-83
2023/02/27 06:03:08;;;;;;;31.57;15.88;;;;;;;3.47;100.00;100196.50;1794561;79;21797;-83
2023/02/27 06:06:18;;;;;;;28.70;16.77;;;;;;;3.49;100.00;100189.13;1784304;79;21154;-84
2023/02/27 06:09:25;;;;;;;20.95;14.15;;;;;;;3.48;100.00;100196.85;1741025;81;21236;-84
2023/02/27 06:12:31;;;;;;;22.27;13.55;;;;;;;3.52;100.00;100192.39;1789075;78;21185;-83
2023/02/27 06:15:37;;;;;;;19.02;12.75;;;;;;;3.53;100.00;100201.39;1775767;79;21187;-83
2023/02/27 06:18:44;;;;;;;16.73;11.65;;;;;;;3.47;100.00;100205.47;1795113;79;21185;-83
2023/02/27 06:21:50;;;;;;;14.07;10.23;;;;;;;3.51;100.00;100197.95;1786924;79;21204;-84
2023/02/27 06:24:57;;;;;;;17.37;11.40;;;;;;;3.56;100.00;100189.78;1773742;79;22201;-84
2023/02/27 06:28:03;;;;;;;19.52;14.05;;;;;;;3.63;100.00;100193.33;1785460;78;21220;-84
2023/02/27 06:31:09;;;;;;;25.25;12.80;;;;;;;3.64;100.00;100190.98;1791600;79;21267;-84
2023/02/27 06:34:16;;;;;;;36.23;11.33;;;;;;;3.71;100.00;100194.34;1791478;79;21145;-85
2023/02/27 06:37:23;;;;;;;29.70;11.53;;;;;;;3.80;100.00;100182.70;1795169;79;21180;-83
2023/02/27 06:40:29;;;;;;;27.02;12.65;;;;;;;3.90;100.00;100181.89;1741400;80;21220;-83
2023/02/27 06:43:35;;;;;;;19.15;11.68;;;;;;;3.90;100.00;100194.06;1729847;82;21237;-84
2023/02/27 06:46:41;;;;;;;23.22;13.05;;;;;;;3.94;100.00;100194.16;1747848;81;22308;-83
2023/02/27 06:49:47;;;;;;;21.50;12.50;;;;;;;3.97;100.00;100197.45;1718564;80;21253;-83
2023/02/27 06:52:53;;;;;;;21.15;12.37;;;;;;;4.04;100.00;100200.46;1792323;79;21283;-84
2023/02/27 06:56:02;;;;;;;22.40;13.08;;;;;;;4.12;100.00;100203.34;1791472;79;21220;-83
2023/02/27 06:59:09;;;;;;;25.68;13.50;;;;;;;4.20;100.00;100204.02;1746522;81;21209;-85
2023/02/27 07:02:19;;;;;;;23.80;13.68;;;;;;;4.29;100.00;100209.46;1721321;80;21260;-84
2023/02/27 07:05:27;;;;;;;18.73;12.45;;;;;;;4.32;100.00;100218.64;1792039;79;21493;-85
2023/02/27 07:08:34;;;;;;;18.40;13.50;;;;;;;4.31;100.00;100221.50;1780894;79;21204;-84
2023/02/27 07:11:42;;;;;;;23.40;14.65;;;;;;;4.38;100.00;100224.53;1763067;80;21243;-84
2023/02/27 07:14:49;;;;;;;20.68;13.72;;;;;;;4.47;100.00;100216.89;1768124;80;21228;-85
2023/02/27 07:17:56;;;;;;;20.50;13.00;;;;;;;4.53;100.00;100213.15;1761276;80;21248;-84
2023/02/27 07:21:02;;;;;;;42.15;15.68;;;;;;;4.61;100.00;100217.84;1787206;79;21165;-84
2023/02/27 07:24:08;;;;;;;43.85;23.32;;;;;;;4.72;100.00;100224.51;1784758;79;21213;-84
2023/02/27 07:27:14;;;;;;;72.72;33.67;;;;;;;4.81;100.00;100223.66;1750966;80;21848;-84
2023/02/27 07:30:21;;;;;;;65.00;37.95;;;;;;;4.94;100.00;100227.93;1748331;80;21224;-84
2023/02/27 07:33:27;;;;;;;50.00;28.98;;;;;;;5.03;100.00;100229.28;1742477;82;21181;-83
2023/02/27 07:36:34;;;;;;;30.57;19.62;;;;;;;5.03;100.00;100237.42;1729652;80;21219;-85
2023/02/27 07:39:39;;;;;;;23.70;15.25;;;;;;;5.01;100.00;100239.43;1728745;81;21259;-85
2023/02/27 07:42:46;;;;;;;22.15;13.40;;;;;;;4.92;100.00;100227.23;1737616;82;21245;-84
2023/02/27 07:45:52;;;;;;;30.08;15.40;;;;;;;4.83;100.00;100228.43;1732643;81;22021;-84
2023/02/27 07:48:59;;;;;;;25.30;15.72;;;;;;;4.83;100.00;100228.43;1737195;81;21197;-84
2023/02/27 07:52:06;;;;;;;25.72;15.68;;;;;;;4.89;100.00;100228.36;1732564;82;21184;-84
2023/02/27 07:55:13;;;;;;;35.10;17.07;;;;;;;4.98;100.00;100229.36;1791346;79;21228;-83
2023/02/27 07:58:20;;;;;;;29.37;17.07;;;;;;;5.01;100.00;100238.58;1767977;79;21601;-84
2023/02/27 08:01:25;;;;;;;22.00;14.38;;;;;;;5.04;100.00;100233.73;1794853;79;21173;-84
2023/02/27 08:04:31;;;;;;;22.22;14.05;;;;;;;5.17;100.00;100222.58;1790956;79;21160;-86
2023/02/27 08:07:38;;;;;;;26.87;16.07;;;;;;;5.26;100.00;100223.07;1783228;77;21161;-86
2023/02/27 08:10:45;;;;;;;26.85;16.30;;;;;;;5.35;100.00;100228.98;1796511;79;21157;-84
2023/02/27 08:13:52;;;;;;;24.92;15.95;;;;;;;5.38;100.00;100226.50;1794401;79;21152;-85
2023/02/27 08:17:00;;;;;;;27.40;16.30;;;;;;;5.53;100.00;100230.97;1783009;79;21215;-85
2023/02/27 08:20:06;;;;;;;29.65;16.75;;;;;;;5.55;100.00;100231.66;1795521;79;21279;-85
2023/02/27 08:23:13;;;;;;;32.28;17.92;;;;;;;5.53;100.00;100241.31;1780087;79;22385;-85
2023/02/27 08:26:13;;;;;;;30.90;16.97;;;;;;;5.54;100.00;100253.02;1722402;81;21343;-84
2023/02/27 08:29:20;;;;;;;34.03;18.60;;;;;;;5.60;100.00;100259.24;1729671;82;21237;-84
2023/02/27 08:32:27;;;;;;;34.00;18.12;;;;;;;5.62;100.00;100255.37;1713942;82;21252;-84
2023/02/27 08:35:33;;;;;;;25.57;16.67;;;;;;;5.68;100.00;100250.35;1723518;81;21273;-84
2023/02/27 08:38:39;;;;;;;28.40;15.95;;;;;;;5.74;100.00;100247.92;1717552;81;21264;-84
2023/02/27 08:41:45;;;;;;;27.00;16.87;;;;;;;5.78;100.00;100247.96;1739434;81;21188;-84
2023/02/27 08:44:51;;;;;;;35.23;17.73;;;;;;;5.84;100.00;100235.69;1758278;80;21213;-85
2023/02/27 08:47:58;;;;;;;31.00;17.35;;;;;;;5.94;100.00;100228.39;1711821;82;21207;-85
2023/02/27 08:51:05;;;;;;;30.85;17.55;;;;;;;6.19;100.00;100228.70;1777819;79;21223;-84
2023/02/27 08:54:10;;;;;;;24.82;17.30;;;;;;;6.27;100.00;100233.75;1761110;80;21216;-85
2023/02/27 08:57:17;;;;;;;33.30;17.32;;;;;;;6.33;100.00;100231.78;1748965;80;21192;-84
2023/02/27 09:00:25;;;;;;;28.07;18.55;;;;;;;6.40;100.00;100234.77;1747309;81;21181;-86
2023/02/27 09:03:36;;;;;;;32.98;17.65;;;;;;;6.47;100.00;100247.23;1743351;81;21919;-85
2023/02/27 09:06:42;;;;;;;28.50;17.42;;;;;;;6.51;100.00;100248.64;1744890;81;21550;-86
2023/02/27 09:09:49;;;;;;;29.23;17.90;;;;;;;6.55;100.00;100238.67;1746506;80;21208;-84
2023/02/27 09:12:56;;;;;;;31.90;20.08;;;;;;;6.61;100.00;100233.13;1755492;81;21260;-86
2023/02/27 09:16:01;;;;;;;33.55;19.45;;;;;;;6.74;100.00;100239.56;1743207;80;21735;-84
2023/02/27 09:19:08;;;;;;;35.60;19.85;;;;;;;6.76;100.00;100230.23;1756340;80;21196;-84
2023/02/27 09:22:14;;;;;;;31.70;18.67;;;;;;;6.88;100.00;100234.45;1744664;80;21272;-83
2023/02/27 09:25:20;;;;;;;32.90;19.92;;;;;;;7.04;100.00;100241.90;1744094;80;21208;-84
2023/02/27 09:28:26;;;;;;;30.82;19.07;;;;;;;7.14;100.00;100228.22;1755923;79;21252;-84
2023/02/27 09:31:33;;;;;;;34.00;20.00;;;;;;;7.30;100.00;100229.73;1753951;80;21793;-85
2023/02/27 09:34:39;;;;;;;33.10;20.62;;;;;;;7.50;100.00;100234.99;1741126;81;21205;-84
2023/02/27 09:37:44;;;;;;;34.40;21.80;;;;;;;7.67;100.00;100243.64;1790317;79;21796;-85
2023/02/27 09:40:50;;;;;;;34.53;21.05;;;;;;;7.82;100.00;100247.48;1780008;79;21259;-86
2023/02/27 09:44:00;;;;;;;33.65;19.95;;;;;;;7.97;100.00;100242.30;1780288;77;22348;-85
2023/02/27 09:47:06;;;;;;;33.70;18.73;;;;;;;8.06;100.00;100239.11;1793919;79;21220;-84
2023/02/27 09:50:36;;;;;;;33.53;19.60;;;;;;;8.04;100.00;100235.67;1799403;79;21234;-85
2023/02/27 09:53:50;;;;;;;35.15;19.12;;;;;;;8.04;100.00;100237.04;1792595;79;21207;-84
2023/02/27 09:57:02;;;;;;;31.70;19.80;;;;;;;8.02;100.00;100230.91;1784920;78;21189;-84
2023/02/27 10:00:13;;;;;;;32.10;20.70;;;;;;;8.20;100.00;100231.18;1800130;79;21196;-85
2023/02/27 10:03:42;;;;;;;39.65;21.77;;;;;;;8.26;100.00;100234.27;1798353;79;21347;-86
2023/02/27 10:06:54;;;;;;;34.20;21.87;;;;;;;8.31;100.00;100227.81;1752773;80;21291;-85
2023/02/27 10:10:40;;;;;;;34.95;21.23;;;;;;;8.31;100.00;100225.94;1754122;80;21254;-85
2023/02/27 10:14:08;;;;;;;37.63;21.30;;;;;;;8.37;100.00;100214.92;1747081;80;21485;-85
2023/02/27 10:17:30;;;;;;;30.55;18.95;;;;;;;8.39;100.00;100212.39;1746445;80;21224;-84
2023/02/27 10:20:41;;;;;;;37.38;19.95;;;;;;;8.52;100.00;100216.02;1769920;79;21193;-85
2023/02/27 10:24:13;;;;;;;38.83;20.48;;;;;;;8.69;100.00;100220.48;1731965;82;21898;-86
2023/02/27 10:27:32;;;;;;;33.05;18.55;;;;;;;8.90;100.00;100212.36;1729901;81;21238;-85
2023/02/27 10:30:42;;;;;;;36.45;18.55;;;;;;;9.05;100.00;100218.01;1730496;80;21748;-84
2023/02/27 10:33:49;;;;;;;39.05;17.98;;;;;;;9.25;100.00;100216.66;1722826;81;21174;-85
2023/02/27 10:36:55;;;;;;;37.23;19.00;;;;;;;9.37;100.00;100216.66;1725949;80;22209;-85
2023/02/27 10:40:05;;;;;;;41.25;21.52;;;;;;;9.43;100.00;100219.22;1789262;78;21236;-86
2023/02/27 10:43:11;;;;;;;43.33;19.00;;;;;;;9.50;100.00;100213.39;1776185;78;21844;-84
2023/02/27 10:46:30;;;;;;;35.60;18.32;;;;;;;9.69;100.00;100209.45;1769373;79;21173;-85
2023/02/27 10:49:38;;;;;;;37.58;20.02;;;;;;;9.93;100.00;100214.04;1766695;79;21554;-84
2023/02/27 10:53:05;;;;;;;33.05;19.42;;;;;;;10.13;100.00;100215.86;1797003;78;22151;-86
2023/02/27 10:56:13;;;;;;;38.20;19.20;;;;;;;10.19;98.96;100214.63;1786936;79;21172;-85
2023/02/27 10:59:32;;;;;;;33.10;18.12;;;;;;;10.24;98.22;100231.90;1786868;79;21260;-84
2023/02/27 11:02:52;;;;;;;30.80;19.50;;;;;;;10.22;97.63;100229.83;1763860;80;21200;-85
2023/02/27 11:06:14;;;;;;;35.03;18.17;;;;;;;10.18;96.97;100232.58;1714757;82;21755;-84
2023/02/27 11:09:29;;;;;;;30.00;18.55;;;;;;;10.11;96.89;100236.51;1754934;80;21232;-85
2023/02/27 11:12:37;;;;;;;42.80;20.27;;;;;;;9.99;96.79;100236.04;1742912;81;21220;-85
2023/02/27 11:15:45;;;;;;;34.20;19.07;;;;;;;9.95;97.40;100244.24;1778990;78;21216;-86
2023/02/27 11:18:53;;;;;;;40.88;22.30;;;;;;;9.97;97.35;100252.25;1782260;79;21205;-86
2023/02/27 11:22:23;;;;;;;47.30;22.77;;;;;;;10.00;97.19;100257.38;1774087;78;21274;-85
2023/02/27 11:25:32;;;;;;;37.05;22.60;;;;;;;9.97;96.37;100244.06;1784003;78;21204;-84
2023/02/27 11:28:40;;;;;;;35.38;20.75;;;;;;;9.90;96.61;100245.28;1781366;79;22312;-85
2023/02/27 11:31:52;;;;;;;32.23;19.12;;;;;;;9.92;96.37;100245.95;1787972;77;21201;-85
2023/02/27 11:34:58;;;;;;;39.55;22.27;;;;;;;9.88;96.28;100250.08;1762223;79;21648;-85
2023/02/27 11:38:06;;;;;;;44.58;23.00;;;;;;;9.79;96.46;100251.11;1737943;80;21221;-85
2023/02/27 11:41:13;;;;;;;35.43;20.72;;;;;;;9.73;96.63;100250.41;1782414;79;21156;-84
2023/02/27 11:44:23;;;;;;;35.40;19.87;;;;;;;9.67;96.74;100248.38;1802713;78;21219;-85
2023/02/27 11:47:39;;;;;;;36.60;20.82;;;;;;;9.60;96.87;100253.69;1799804;79;21164;-83
2023/02/27 11:51:19;;;;;;;42.03;25.15;;;;;;;9.53;96.98;100248.56;1750463;80;21233;-86
2023/02/27 11:54:51;;;;;;;40.45;21.52;;;;;;;9.44;97.13;100247.70;1745365;79;21212;-84
2023/02/27 11:58:07;;;;;;;33.80;20.02;;;;;;;9.37;97.48;100250.78;1726930;82;21308;-85
2023/02/27 12:01:16;;;;;;;33.02;20.15;;;;;;;9.30;97.85;100250.26;1783195;79;21486;-85
2023/02/27 12:04:37;;;;;;;35.25;22.40;;;;;;;9.20;98.23;100248.55;1780341;77;21224;-85
2023/02/27 12:08:07;;;;;;;42.93;21.20;;;;;;;9.19;98.66;100238.66;1736189;80;21299;-84
2023/02/27 12:11:35;;;;;;;46.65;20.20;;;;;;;9.14;98.86;100249.74;1774056;79;21885;-84
2023/02/27 12:14:59;;;;;;;34.67;20.35;;;;;;;8.98;99.63;100241.52;1785174;79;21217;-84
2023/02/27 12:18:16;;;;;;;41.48;22.17;;;;;;;8.94;99.71;100249.20;1751306;81;21264;-84
2023/02/27 12:21:38;;;;;;;35.75;21.68;;;;;;;8.90;100.00;100241.86;1728537;81;21173;-83
2023/02/27 12:24:55;;;;;;;42.98;25.62;;;;;;;8.85;100.00;100249.69;1730869;81;21733;-85
2023/02/27 12:28:14;;;;;;;39.63;20.62;;;;;;;8.90;100.00;100253.28;1708712;82;21860;-86
2023/02/27 12:31:42;;;;;;;36.77;20.57;;;;;;;8.82;100.00;100247.80;1743703;80;21276;-85
2023/02/27 12:34:55;;;;;;;38.90;19.82;;;;;;;8.77;100.00;100256.48;1725226;81;21331;-86
2023/02/27 12:38:03;;;;;;;38.25;21.25;;;;;;;8.70;100.00;100261.75;1711601;83;21803;-85
2023/02/27 12:41:32;;;;;;;36.88;21.00;;;;;;;8.55;100.00;100262.53;1734275;80;21266;-86
2023/02/27 12:44:49;;;;;;;61.63;32.13;;;;;;;8.50;100.00;100270.34;1711153;80;22034;-86
2023/02/27 12:48:43;;;;;;;62.93;33.88;;;;;;;8.41;100.00;100266.22;1734529;82;21252;-85
2023/02/27 12:52:11;;;;;;;91.72;48.20;;;;;;;8.38;100.00;100274.73;1729060;82;21238;-85
2023/02/27 12:55:27;;;;;;;70.55;36.73;;;;;;;8.29;100.00;100267.50;1693985;83;21251;-85
2023/02/27 12:58:58;;;;;;;42.08;24.72;;;;;;;8.30;100.00;100260.18;1802869;78;21248;-85
2023/02/27 13:02:17;;;;;;;48.42;27.13;;;;;;;8.25;100.00;100263.91;1802706;79;21563;-86
2023/02/27 13:05:53;;;;;;;50.58;27.48;;;;;;;8.15;100.00;100268.96;1798050;79;21362;-85
2023/02/27 13:09:22;;;;;;;39.98;25.57;;;;;;;8.08;100.00;100262.95;1787578;79;21192;-85
2023/02/27 13:12:34;;;;;;;44.10;24.37;;;;;;;8.01;100.00;100260.54;1763477;80;21204;-84
2023/02/27 13:15:45;;;;;;;36.20;24.60;;;;;;;7.90;100.00;100261.16;1763775;79;21225;-85
2023/02/27 13:19:18;;;;;;;54.30;30.70;;;;;;;7.81;100.00;100256.67;1769109;80;21251;-85
2023/02/27 13:22:46;;;;;;;48.05;29.90;;;;;;;7.76;100.00;100259.50;1778502;79;21191;-85
2023/02/27 13:25:54;;;;;;;56.88;30.75;;;;;;;7.73;100.00;100255.75;1779649;79;21212;-85
2023/02/27 13:29:00;;;;;;;50.85;28.85;;;;;;;7.62;100.00;100250.03;1791926;79;21229;-86
2023/02/27 13:32:14;;;;;;;44.40;28.07;;;;;;;7.57;100.00;100255.11;1764511;80;21184;-85
2023/02/27 13:35:56;;;;;;;46.85;27.22;;;;;;;7.49;100.00;100261.36;1790534;79;21200;-86
2023/02/27 13:39:02;;;;;;;57.23;27.60;;;;;;;7.46;100.00;100256.73;1780438;79;21165;-84
2023/02/27 13:42:08;;;;;;;120.40;68.00;;;;;;;7.42;100.00;100266.56;1805144;79;21184;-85
2023/02/27 13:45:30;;;;;;;114.12;64.37;;;;;;;7.37;100.00;100262.60;1806213;79;21193;-85
2023/02/27 13:48:52;;;;;;;71.22;41.90;;;;;;;7.33;100.00;100260.70;1732367;80;21272;-85
2023/02/27 13:52:00;;;;;;;103.95;44.35;;;;;;;7.26;100.00;100260.98;1799344;79;21168;-84
2023/02/27 13:55:08;;;;;;;89.90;47.83;;;;;;;7.15;100.00;100256.65;1765422;80;21251;-85
2023/02/27 13:58:17;;;;;;;86.90;48.23;;;;;;;7.04;100.00;100252.78;1760549;80;21216;-85
2023/02/27 14:01:29;;;;;;;55.98;30.95;;;;;;;6.92;100.00;100255.39;1727174;82;21292;-85
2023/02/27 14:04:38;;;;;;;70.50;38.60;;;;;;;6.82;100.00;100263.62;1735453;81;21208;-85
2023/02/27 14:08:07;;;;;;;78.42;38.88;;;;;;;6.72;100.00;100249.21;1769345;79;21224;-85
2023/02/27 14:11:38;;;;;;;91.92;50.95;;;;;;;6.61;100.00;100244.00;1749222;79;21354;-85
2023/02/27 14:14:54;;;;;;;56.48;36.42;;;;;;;6.52;100.00;100254.42;1756109;79;21207;-86
2023/02/27 14:18:05;;;;;;;65.60;34.03;;;;;;;6.43;100.00;100252.61;1779107;79;21243;-85
2023/02/27 14:21:11;;;;;;;85.67;50.45;;;;;;;6.38;100.00;100249.84;1733620;82;21188;-85
2023/02/27 14:24:20;;;;;;;74.25;42.45;;;;;;;6.34;100.00;100240.27;1707665;84;21197;-85
2023/02/27 14:27:35;;;;;;;59.60;33.33;;;;;;;6.29;100.00;100234.95;1737088;82;21260;-85
2023/02/27 14:30:48;;;;;;;56.15;34.80;;;;;;;6.29;100.00;100239.02;1724229;80;21386;-84
2023/02/27 14:34:03;;;;;;;59.95;34.58;;;;;;;6.25;100.00;100245.75;1732886;81;21250;-84
2023/02/27 14:37:07;;;;;;;58.98;33.88;;;;;;;6.22;100.00;100240.64;1733286;82;21401;-84
2023/02/27 14:40:13;;;;;;;62.13;34.10;;;;;;;6.17;100.00;100231.59;1730644;82;21226;-84
2023/02/27 14:43:29;;;;;;;61.15;31.90;;;;;;;6.11;100.00;100228.94;1726390;80;21224;-85
2023/02/27 14:46:42;;;;;;;55.33;31.90;;;;;;;6.07;100.00;100237.06;1735815;82;21196;-85
2023/02/27 14:49:46;;;;;;;;;;;;;;;6.03;100.00;100236.16;1736391;82;21212;-85
2023/02/27 14:52:51;;;;;;;58.63;29.63;;;;;;;5.98;100.00;100239.31;1733679;82;20227;-85
2023/02/27 14:56:07;;;;;;;51.80;31.93;;;;;;;5.93;100.00;100235.30;1734852;82;21209;-85
2023/02/27 14:59:35;;;;;;;55.28;32.23;;;;;;;5.90;100.00;100231.02;1733142;82;21196;-85
2023/02/27 15:02:38;;;;;;;45.88;28.62;;;;;;;5.90;100.00;100241.36;1733323;82;21204;-85
2023/02/27 15:05:44;;;;;;;48.85;30.75;;;;;;;5.88;100.00;100244.74;1728528;80;21750;-85
2023/02/27 15:08:56;;;;;;;60.58;33.08;;;;;;;5.85;100.00;100242.31;1734684;80;21243;-84
2023/02/27 15:12:03;;;;;;;56.28;30.35;;;;;;;5.84;100.00;100243.83;1731600;82;21308;-85
2023/02/27 15:15:10;;;;;;;51.23;28.80;;;;;;;5.83;100.00;100248.88;1717155;80;21229;-84
2023/02/27 15:18:21;;;;;;;51.75;30.65;;;;;;;5.79;100.00;100246.12;1734917;82;21774;-84
2023/02/27 15:21:30;;;;;;;55.65;30.70;;;;;;;5.76;100.00;100266.27;1734446;82;21236;-84
2023/02/27 15:24:38;;;;;;;54.20;31.73;;;;;;;5.76;100.00;100267.63;1734441;82;21185;-84
2023/02/27 15:27:47;;;;;;;54.25;29.82;;;;;;;5.76;100.00;100267.63;1724536;80;21257;-85
2023/02/27 15:30:59;;;;;;;48.10;29.85;;;;;;;5.72;100.00;100274.84;1670406;82;21192;-85
2023/02/27 15:34:07;;;;;;;43.87;28.52;;;;;;;5.69;100.00;100284.63;1771405;79;21830;-85
2023/02/27 15:37:12;;;;;;;43.28;28.47;;;;;;;5.68;100.00;100286.48;1762333;79;21334;-85
2023/02/27 15:40:22;;;;;;;40.98;25.77;;;;;;;5.67;100.00;100292.92;1776026;80;21251;-85
2023/02/27 15:43:27;;;;;;;43.73;28.40;;;;;;;5.67;100.00;100299.70;1766488;79;21215;-84
2023/02/27 15:46:36;;;;;;;48.60;28.07;;;;;;;5.63;100.00;100315.41;1758298;80;21255;-84
2023/02/27 15:49:41;;;;;;;51.88;30.25;;;;;;;5.67;100.00;100314.63;1765870;79;21272;-84
2023/02/27 15:53:02;;;;;;;44.13;26.57;;;;;;;5.67;100.00;100320.06;1741649;82;21204;-83
2023/02/27 15:56:14;;;;;;;49.35;27.48;;;;;;;5.66;100.00;100326.49;1757116;79;21263;-83
2023/02/27 15:59:24;;;;;;;41.98;26.80;;;;;;;5.66;100.00;100323.78;1738239;80;21259;-84
2023/02/27 16:02:38;;;;;;;40.95;25.02;;;;;;;5.63;100.00;100324.06;1758123;79;21272;-84
2023/02/27 16:05:46;;;;;;;37.58;22.65;;;;;;;5.58;100.00;100324.48;1759403;81;21149;-84